Time;durP1;ratioP1;P1;durP2;ratioP2;P2;SDS_P1;SDS_P2;PMS_P1;PMS_P2;Temp;Humidity;BMP_temperature;BMP_pressure;BME280_temperature;BME280_humidity;BME280_pressure;Samples;Min_cycle;Max_cycle;Signal;HPM_P1;HPM_P2
2022/06/06 00:02:11;;;;;;;0.00;0.00;;;18.40;99.90;;;;;;5037744;28;20457;-70
2022/06/06 00:04:40;;;;;;;0.00;0.00;;;18.40;99.90;;;;;;5037573;28;20466;-69
2022/06/06 00:07:08;;;;;;;0.00;0.00;;;18.40;99.90;;;;;;5037239;28;20532;-68
2022/06/06 00:09:36;;;;;;;0.00;0.00;;;18.50;99.90;;;;;;5037216;28;21156;-69
2022/06/06 00:12:06;;;;;;;0.00;0.00;;;18.50;99.90;;;;;;5037317;28;20999;-69
2022/06/06 00:14:34;;;;;;;0.00;0.00;;;18.40;99.90;;;;;;5037254;28;20450;-69
2022/06/06 00:17:02;;;;;;;0.00;0.00;;;18.40;99.90;;;;;;5039839;28;21193;-69
2022/06/06 00:19:30;;;;;;;0.00;0.00;;;18.40;99.90;;;;;;5041225;28;20465;-69
2022/06/06 00:21:59;;;;;;;0.00;0.00;;;18.40;99.90;;;;;;5040949;28;20462;-69
2022/06/06 00:24:27;;;;;;;0.00;0.00;;;18.30;99.90;;;;;;5041251;28;20469;-70
2022/06/06 00:26:56;;;;;;;0.00;0.00;;;18.30;99.90;;;;;;5040428;28;20428;-69
2022/06/06 00:29:24;;;;;;;0.00;0.00;;;18.20;99.90;;;;;;5040520;28;20446;-69
2022/06/06 00:34:53;;;;;;;0.00;0.00;;;18.10;99.90;;;;;;5041411;28;20433;-66
2022/06/06 00:37:25;;;;;;;0.00;0.00;;;17.90;99.90;;;;;;5040541;28;20439;-68
2022/06/06 00:39:54;;;;;;;0.00;0.00;;;17.80;99.90;;;;;;5041424;28;20445;-70
2022/06/06 00:42:25;;;;;;;0.00;0.00;;;17.70;99.90;;;;;;5042035;28;20532;-70
2022/06/06 00:45:25;;;;;;;0.00;0.00;;;17.70;99.90;;;;;;5042335;28;20704;-73
2022/06/06 00:47:58;;;;;;;0.00;0.00;;;17.70;99.90;;;;;;5008702;28;20460;-67
2022/06/06 00:50:33;;;;;;;0.00;0.00;;;17.70;99.90;;;;;;5041331;28;21105;-68
2022/06/06 00:53:04;;;;;;;0.00;0.00;;;17.70;99.90;;;;;;5040510;28;20452;-69
2022/06/06 00:55:37;;;;;;;0.00;0.00;;;17.70;99.90;;;;;;5040367;28;21049;-71
2022/06/06 00:58:11;;;;;;;0.00;0.00;;;17.70;99.90;;;;;;5040007;28;20436;-67
2022/06/06 01:00:39;;;;;;;0.00;0.00;;;17.70;99.90;;;;;;5040225;28;20468;-67
2022/06/06 01:03:12;;;;;;;0.00;0.00;;;17.70;99.90;;;;;;5040277;28;20485;-67
2022/06/06 01:05:41;;;;;;;0.00;0.00;;;17.70;99.90;;;;;;5040177;28;20477;-68
2022/06/06 01:08:11;;;;;;;0.00;0.00;;;17.70;99.90;;;;;;5040095;28;20432;-68
2022/06/06 01:10:39;;;;;;;0.00;0.00;;;17.70;99.90;;;;;;5040088;28;20531;-68
2022/06/06 01:13:10;;;;;;;0.00;0.00;;;17.60;99.90;;;;;;5039334;28;20636;-68
2022/06/06 01:15:50;;;;;;;0.00;0.00;;;17.60;99.90;;;;;;5039662;28;20441;-67
2022/06/06 01:18:27;;;;;;;0.00;0.00;;;17.70;99.90;;;;;;5039578;28;20515;-69
2022/06/06 01:21:26;;;;;;;0.00;0.00;;;17.70;99.90;;;;;;5039879;28;20446;-68
2022/06/06 01:24:15;;;;;;;0.00;0.00;;;17.60;99.90;;;;;;5039469;28;20486;-68
2022/06/06 01:26:58;;;;;;;0.00;0.00;;;17.60;99.90;;;;;;5039714;28;20442;-69
2022/06/06 01:29:32;;;;;;;0.00;0.00;;;17.60;99.90;;;;;;5039271;28;20461;-67
2022/06/06 01:32:03;;;;;;;0.00;0.00;;;17.60;99.90;;;;;;5039501;28;20464;-67
2022/06/06 01:34:34;;;;;;;0.00;0.00;;;17.60;99.90;;;;;;5038986;28;20589;-68
2022/06/06 01:37:03;;;;;;;0.00;0.00;;;17.70;99.90;;;;;;5039451;28;20438;-69
2022/06/06 01:39:32;;;;;;;0.00;0.00;;;17.70;99.90;;;;;;5039403;28;20442;-68
2022/06/06 01:42:09;;;;;;;0.00;0.00;;;17.70;99.90;;;;;;5039977;28;20465;-69
2022/06/06 01:44:44;;;;;;;0.00;0.00;;;17.70;99.90;;;;;;5039641;28;20490;-69
2022/06/06 01:47:18;;;;;;;0.00;0.00;;;17.80;99.90;;;;;;5039168;28;21129;-70
2022/06/06 01:49:46;;;;;;;0.00;0.00;;;17.80;99.90;;;;;;5039768;28;20438;-69
2022/06/06 01:52:16;;;;;;;0.00;0.00;;;17.80;99.90;;;;;;5038797;28;20501;-69
2022/06/06 01:54:44;;;;;;;0.00;0.00;;;17.80;99.90;;;;;;5039346;28;20512;-69
2022/06/06 01:57:15;;;;;;;0.00;0.00;;;17.80;99.90;;;;;;5038766;28;20453;-69
2022/06/06 01:59:45;;;;;;;0.00;0.00;;;17.80;99.90;;;;;;5038864;28;20451;-69
2022/06/06 02:02:12;;;;;;;0.00;0.00;;;17.80;99.90;;;;;;5038675;28;20461;-68
2022/06/06 02:04:40;;;;;;;0.00;0.00;;;17.70;99.90;;;;;;5038446;28;20840;-68
2022/06/06 02:07:08;;;;;;;0.00;0.00;;;17.70;99.90;;;;;;5038191;28;20445;-68
2022/06/06 02:09:36;;;;;;;0.00;0.00;;;17.70;99.90;;;;;;5038863;28;20426;-68
2022/06/06 02:12:04;;;;;;;0.00;0.00;;;17.70;99.90;;;;;;5038985;28;20462;-69
2022/06/06 02:14:32;;;;;;;0.00;0.00;;;17.60;99.90;;;;;;5038424;28;20830;-68
2022/06/06 02:17:01;;;;;;;0.00;0.00;;;17.60;99.90;;;;;;5038513;28;20492;-68
2022/06/06 02:19:29;;;;;;;0.00;0.00;;;17.70;99.90;;;;;;5038596;28;20442;-69
2022/06/06 02:21:57;;;;;;;0.00;0.00;;;17.70;99.90;;;;;;5038499;28;20558;-67
2022/06/06 02:24:26;;;;;;;0.00;0.00;;;17.80;99.90;;;;;;5038427;28;20606;-68
2022/06/06 02:26:53;;;;;;;0.00;0.00;;;17.90;99.90;;;;;;5038811;28;20443;-67
2022/06/06 02:29:21;;;;;;;0.00;0.00;;;17.90;99.90;;;;;;5038438;28;20978;-70
2022/06/06 02:31:49;;;;;;;0.00;0.00;;;18.00;99.90;;;;;;5037825;28;20457;-69
2022/06/06 02:34:18;;;;;;;0.00;0.00;;;18.00;99.90;;;;;;5038095;28;20436;-69
2022/06/06 02:36:46;;;;;;;0.00;0.00;;;18.00;99.90;;;;;;5037966;28;20449;-69
2022/06/06 02:39:14;;;;;;;0.00;0.00;;;18.00;99.90;;;;;;5036975;28;20440;-69
2022/06/06 02:41:42;;;;;;;0.00;0.00;;;18.00;99.90;;;;;;5038036;28;21187;-68
2022/06/06 02:44:10;;;;;;;0.00;0.00;;;18.00;99.90;;;;;;5037902;28;20506;-69
2022/06/06 02:46:38;;;;;;;0.00;0.00;;;17.90;99.90;;;;;;5038041;28;20469;-70
2022/06/06 02:49:06;;;;;;;0.00;0.00;;;17.90;99.90;;;;;;5038147;28;20513;-70
2022/06/06 02:51:36;;;;;;;0.00;0.00;;;17.90;99.90;;;;;;5037811;28;20476;-70
2022/06/06 02:54:04;;;;;;;0.00;0.00;;;17.90;99.90;;;;;;5037854;28;20434;-68
2022/06/06 02:56:32;;;;;;;0.00;0.00;;;17.90;99.90;;;;;;5037768;28;20530;-70
2022/06/06 02:59:08;;;;;;;0.00;0.00;;;17.90;99.90;;;;;;5038058;28;20450;-70
2022/06/06 03:01:37;;;;;;;0.00;0.00;;;17.80;99.90;;;;;;5037177;28;21040;-68
2022/06/06 03:04:04;;;;;;;0.00;0.00;;;17.70;99.90;;;;;;5037670;28;20455;-70
2022/06/06 03:06:44;;;;;;;0.00;0.00;;;17.70;99.90;;;;;;5037804;28;20954;-69
2022/06/06 03:09:29;;;;;;;0.00;0.00;;;17.70;99.90;;;;;;5038014;28;21187;-70
2022/06/06 03:12:12;;;;;;;0.00;0.00;;;17.70;99.90;;;;;;5037891;28;20470;-68
2022/06/06 03:15:00;;;;;;;0.00;0.00;;;17.70;99.90;;;;;;5037982;28;20478;-70
2022/06/06 03:23:44;;;;;;;0.00;0.00;;;17.70;99.90;;;;;;5024204;28;20443;-70
2022/06/06 03:26:18;;;;;;;0.00;0.00;;;17.70;99.90;;;;;;5037120;28;20966;-70
2022/06/06 03:28:59;;;;;;;0.00;0.00;;;17.70;99.90;;;;;;5038365;28;20434;-70
2022/06/06 03:31:37;;;;;;;0.00;0.00;;;17.70;99.90;;;;;;5038127;28;20529;-70
2022/06/06 03:34:15;;;;;;;0.00;0.00;;;17.80;99.90;;;;;;5037794;28;21145;-70
2022/06/06 03:36:50;;;;;;;0.00;0.00;;;17.80;99.90;;;;;;5037964;28;20433;-70
2022/06/06 03:39:27;;;;;;;0.00;0.00;;;17.70;99.90;;;;;;5039368;28;20473;-70
2022/06/06 03:42:11;;;;;;;0.00;0.00;;;17.70;99.90;;;;;;5038979;28;20499;-69
2022/06/06 03:44:56;;;;;;;0.00;0.00;;;17.70;99.90;;;;;;5038915;28;21031;-69
2022/06/06 03:47:34;;;;;;;0.00;0.00;;;17.70;99.90;;;;;;5038619;28;20452;-69
2022/06/06 03:50:12;;;;;;;0.00;0.00;;;17.60;99.90;;;;;;5037349;28;20439;-71
2022/06/06 03:52:45;;;;;;;0.00;0.00;;;17.60;99.90;;;;;;5041661;28;20466;-69
2022/06/06 03:55:27;;;;;;;0.00;0.00;;;17.70;99.90;;;;;;5041010;28;20458;-69
2022/06/06 03:57:57;;;;;;;0.00;0.00;;;17.80;99.90;;;;;;5041309;28;20435;-69
2022/06/06 04:00:25;;;;;;;0.00;0.00;;;17.80;99.90;;;;;;5041598;28;20434;-69
2022/06/06 04:02:56;;;;;;;0.00;0.00;;;17.80;99.90;;;;;;5042014;28;20459;-69
2022/06/06 04:05:24;;;;;;;0.00;0.00;;;17.80;99.90;;;;;;5041357;28;20643;-69
2022/06/06 04:07:52;;;;;;;0.00;0.00;;;17.70;99.90;;;;;;5041424;28;20531;-68
2022/06/06 04:10:24;;;;;;;0.00;0.00;;;17.70;99.90;;;;;;5040948;28;20453;-69
2022/06/06 04:13:11;;;;;;;0.00;0.00;;;17.70;99.90;;;;;;5042076;28;20551;-69
2022/06/06 04:15:51;;;;;;;0.00;0.00;;;17.70;99.90;;;;;;5041362;28;20438;-69
2022/06/06 04:18:28;;;;;;;0.00;0.00;;;17.70;99.90;;;;;;5041013;28;20455;-69
2022/06/06 04:21:06;;;;;;;0.00;0.00;;;17.60;99.90;;;;;;5040938;28;20707;-69
2022/06/06 04:23:51;;;;;;;0.00;0.00;;;17.60;99.90;;;;;;5040890;28;20454;-69
2022/06/06 04:26:28;;;;;;;0.00;0.00;;;17.50;99.90;;;;;;5041024;28;20467;-69
2022/06/06 04:29:04;;;;;;;0.00;0.00;;;17.50;99.90;;;;;;5041174;28;20448;-69
2022/06/06 04:31:44;;;;;;;0.00;0.00;;;17.40;99.90;;;;;;5040447;28;21175;-69
2022/06/06 04:34:17;;;;;;;0.00;0.00;;;17.40;99.90;;;;;;5040858;28;20444;-70
2022/06/06 04:36:51;;;;;;;0.00;0.00;;;17.40;99.90;;;;;;5040535;28;20463;-70
2022/06/06 04:39:25;;;;;;;0.00;0.00;;;17.40;99.90;;;;;;5040537;28;20442;-69
2022/06/06 04:42:00;;;;;;;0.00;0.00;;;17.40;99.90;;;;;;5023331;28;20482;-68
2022/06/06 04:44:35;;;;;;;0.00;0.00;;;17.40;99.90;;;;;;5020288;28;20604;-69
2022/06/06 04:47:13;;;;;;;0.00;0.00;;;17.50;99.90;;;;;;5020212;28;20484;-71
2022/06/06 04:49:42;;;;;;;0.00;0.00;;;17.60;99.90;;;;;;5019829;28;20949;-71
2022/06/06 04:52:12;;;;;;;0.00;0.00;;;17.70;99.90;;;;;;5020212;28;20461;-70
2022/06/06 04:54:41;;;;;;;0.00;0.00;;;17.80;99.90;;;;;;5020166;28;20455;-69
2022/06/06 04:57:14;;;;;;;0.00;0.00;;;17.80;99.90;;;;;;5020020;28;20424;-68
2022/06/06 04:59:42;;;;;;;0.00;0.00;;;17.90;99.90;;;;;;5020003;28;20437;-68
2022/06/06 05:02:10;;;;;;;0.00;0.00;;;17.90;99.90;;;;;;5019247;28;20464;-68
2022/06/06 05:04:38;;;;;;;0.00;0.00;;;17.90;99.90;;;;;;5020451;28;20456;-66
2022/06/06 05:07:30;;;;;;;0.00;0.00;;;18.00;99.90;;;;;;5019955;28;20520;-68
2022/06/06 05:10:25;;;;;;;0.00;0.00;;;18.00;99.90;;;;;;5020263;28;20443;-68
2022/06/06 05:13:25;;;;;;;0.00;0.00;;;17.90;99.90;;;;;;5020098;28;20469;-68
2022/06/06 05:16:07;;;;;;;0.00;0.00;;;18.00;99.90;;;;;;5020230;28;20476;-71
2022/06/06 05:19:03;;;;;;;0.00;0.00;;;17.80;99.90;;;;;;5000174;28;20447;-71
2022/06/06 05:21:46;;;;;;;0.00;0.00;;;17.90;99.90;;;;;;4997583;28;21149;-71
2022/06/06 05:24:24;;;;;;;0.00;0.00;;;17.90;99.90;;;;;;5000484;28;20448;-71
2022/06/06 05:27:06;;;;;;;0.00;0.00;;;17.90;99.90;;;;;;4999515;28;21267;-70
2022/06/06 05:30:04;;;;;;;0.00;0.00;;;17.90;99.90;;;;;;4999957;28;20952;-71
2022/06/06 05:32:52;;;;;;;0.00;0.00;;;17.90;99.90;;;;;;4999840;28;20478;-71
2022/06/06 05:35:33;;;;;;;0.00;0.00;;;17.90;99.90;;;;;;4999661;28;20435;-77
2022/06/06 05:38:13;;;;;;;0.00;0.00;;;18.00;99.90;;;;;;5000382;28;20447;-69
2022/06/06 05:40:55;;;;;;;0.00;0.00;;;17.90;99.90;;;;;;4989029;28;20472;-71
2022/06/06 05:43:40;;;;;;;0.00;0.00;;;17.90;99.90;;;;;;4986762;28;20467;-72
2022/06/06 05:46:22;;;;;;;0.00;0.00;;;17.90;99.90;;;;;;4988431;28;20492;-73
2022/06/06 05:49:05;;;;;;;0.00;0.00;;;17.90;99.90;;;;;;4984733;28;20511;-68
2022/06/06 05:51:45;;;;;;;0.00;0.00;;;17.90;99.90;;;;;;4999725;28;20481;-67
2022/06/06 05:54:31;;;;;;;0.00;0.00;;;18.00;99.90;;;;;;4998708;28;20463;-67
2022/06/06 05:57:32;;;;;;;0.00;0.00;;;18.00;99.90;;;;;;4998674;28;20523;-67
2022/06/06 06:00:16;;;;;;;0.00;0.00;;;18.00;99.90;;;;;;4995073;28;21214;-68
2022/06/06 06:03:19;;;;;;;0.00;0.00;;;18.10;99.90;;;;;;4992402;28;21067;-68
2022/06/06 06:05:59;;;;;;;0.00;0.00;;;18.10;99.90;;;;;;4988503;28;20725;-68
2022/06/06 06:08:43;;;;;;;0.00;0.00;;;18.10;99.90;;;;;;4998965;28;20446;-67
2022/06/06 06:11:24;;;;;;;0.00;0.00;;;18.00;99.90;;;;;;4998310;28;20463;-68
2022/06/06 06:14:05;;;;;;;0.00;0.00;;;18.10;99.90;;;;;;4998439;28;20762;-68
2022/06/06 06:16:39;;;;;;;0.00;0.00;;;18.20;99.90;;;;;;5002814;28;20454;-67
2022/06/06 06:19:13;;;;;;;0.00;0.00;;;18.30;99.90;;;;;;5018469;28;20494;-67
2022/06/06 06:21:45;;;;;;;0.00;0.00;;;18.40;99.90;;;;;;5017316;28;20638;-66
2022/06/06 06:24:17;;;;;;;0.00;0.00;;;18.50;99.90;;;;;;5013398;28;20480;-67
2022/06/06 06:26:46;;;;;;;0.00;0.00;;;18.50;99.90;;;;;;5015850;28;20914;-67
2022/06/06 06:29:21;;;;;;;0.00;0.00;;;18.50;99.90;;;;;;5018099;28;20458;-68
2022/06/06 06:32:01;;;;;;;0.00;0.00;;;18.30;99.90;;;;;;5018658;28;20491;-68
2022/06/06 06:34:44;;;;;;;0.00;0.00;;;18.30;99.90;;;;;;5018434;28;20435;-68
2022/06/06 06:37:26;;;;;;;0.00;0.00;;;18.20;99.90;;;;;;4998195;28;20461;-68
2022/06/06 06:40:16;;;;;;;0.00;0.00;;;18.20;99.90;;;;;;4998334;28;20956;-68
2022/06/06 06:42:56;;;;;;;0.00;0.00;;;18.20;99.90;;;;;;4997890;28;21082;-68
2022/06/06 06:45:28;;;;;;;0.00;0.00;;;18.20;99.90;;;;;;4998600;28;21116;-66
2022/06/06 06:48:03;;;;;;;0.00;0.00;;;18.10;99.90;;;;;;4998602;28;20838;-66
2022/06/06 06:50:37;;;;;;;0.00;0.00;;;18.00;99.90;;;;;;5015830;28;20915;-67
2022/06/06 06:53:18;;;;;;;0.00;0.00;;;17.90;99.90;;;;;;5017225;28;21054;-66
2022/06/06 06:55:57;;;;;;;0.00;0.00;;;17.80;99.90;;;;;;5017539;28;21047;-70
2022/06/06 06:58:40;;;;;;;0.00;0.00;;;17.90;99.90;;;;;;5017874;28;20864;-69
2022/06/06 07:01:12;;;;;;;0.00;0.00;;;18.10;99.90;;;;;;5016900;28;20479;-70
2022/06/06 07:10:03;;;;;;;0.00;0.00;;;18.00;99.90;;;;;;5017398;28;20451;-70
2022/06/06 07:13:02;;;;;;;0.00;0.00;;;18.00;99.90;;;;;;5017567;28;20459;-70
2022/06/06 07:15:41;;;;;;;0.00;0.00;;;18.00;99.90;;;;;;5011027;28;20483;-69
2022/06/06 07:18:11;;;;;;;0.00;0.00;;;18.10;99.90;;;;;;5001548;28;21021;-69
2022/06/06 07:20:41;;;;;;;0.00;0.00;;;18.10;99.90;;;;;;4998397;28;20467;-69
2022/06/06 07:23:12;;;;;;;0.00;0.00;;;18.30;99.90;;;;;;4998395;28;20680;-68
2022/06/06 07:25:42;;;;;;;0.00;0.00;;;18.40;99.90;;;;;;4998565;28;20544;-67
2022/06/06 07:28:12;;;;;;;0.00;0.00;;;18.40;99.90;;;;;;5005667;28;22363;-67
2022/06/06 07:30:47;;;;;;;0.00;0.00;;;18.40;99.90;;;;;;5012356;28;20744;-67
2022/06/06 07:33:44;;;;;;;0.00;0.00;;;18.60;99.90;;;;;;5014632;28;20763;-67
2022/06/06 07:36:21;;;;;;;0.00;0.00;;;18.60;99.90;;;;;;4995868;28;20459;-68
2022/06/06 07:39:02;;;;;;;0.00;0.00;;;18.80;99.90;;;;;;5001993;28;20730;-67
2022/06/06 07:41:43;;;;;;;0.00;0.00;;;19.00;99.90;;;;;;5006174;28;20461;-68
2022/06/06 07:44:21;;;;;;;0.00;0.00;;;19.10;99.90;;;;;;5021197;28;20792;-67
2022/06/06 07:47:01;;;;;;;0.00;0.00;;;19.10;99.90;;;;;;5021065;28;20510;-67
2022/06/06 07:49:39;;;;;;;0.00;0.00;;;19.30;99.90;;;;;;5021898;28;20440;-67
2022/06/06 07:52:20;;;;;;;0.00;0.00;;;19.40;99.90;;;;;;5021587;28;20725;-67
2022/06/06 07:55:00;;;;;;;0.00;0.00;;;19.50;99.90;;;;;;5021154;28;20971;-67
2022/06/06 07:57:38;;;;;;;0.00;0.00;;;19.70;99.90;;;;;;5021243;28;20708;-67
2022/06/06 08:00:10;;;;;;;0.00;0.00;;;19.80;99.90;;;;;;5021294;28;20429;-67
2022/06/06 08:03:14;;;;;;;0.00;0.00;;;19.70;99.90;;;;;;5007718;28;20620;-67
2022/06/06 08:06:05;;;;;;;0.00;0.00;;;19.70;99.90;;;;;;4938770;28;20456;-67
2022/06/06 08:09:01;;;;;;;0.00;0.00;;;19.60;99.90;;;;;;5015212;28;20493;-67
2022/06/06 08:11:41;;;;;;;0.00;0.00;;;19.50;99.90;;;;;;5001778;28;20466;-67
2022/06/06 08:14:20;;;;;;;0.00;0.00;;;19.50;99.90;;;;;;5005081;28;20430;-69
2022/06/06 08:16:51;;;;;;;0.00;0.00;;;19.60;99.90;;;;;;5004448;28;21023;-68
2022/06/06 08:19:37;;;;;;;0.00;0.00;;;19.50;99.90;;;;;;5023443;28;20465;-68
2022/06/06 08:22:07;;;;;;;0.00;0.00;;;19.50;99.90;;;;;;5021984;28;20479;-73
2022/06/06 08:24:39;;;;;;;0.00;0.00;;;19.50;99.90;;;;;;5018668;28;20449;-71
2022/06/06 08:27:19;;;;;;;0.00;0.00;;;19.60;99.90;;;;;;5013204;28;21103;-71
2022/06/06 08:29:49;;;;;;;0.00;0.00;;;19.70;99.90;;;;;;5009762;28;21175;-72
2022/06/06 08:32:18;;;;;;;0.00;0.00;;;19.90;99.90;;;;;;5010878;28;20467;-67
2022/06/06 08:34:47;;;;;;;0.00;0.00;;;19.90;99.90;;;;;;5011503;28;20445;-68
2022/06/06 08:37:46;;;;;;;0.00;0.00;;;20.00;99.90;;;;;;5008875;28;20452;-69
2022/06/06 08:41:04;;;;;;;0.00;0.00;;;20.10;99.90;;;;;;5003410;28;20464;-69
2022/06/06 08:43:59;;;;;;;0.00;0.00;;;20.00;99.90;;;;;;5009494;28;20464;-69
2022/06/06 08:46:54;;;;;;;0.00;0.00;;;19.70;99.90;;;;;;5008829;28;20449;-75
2022/06/06 08:52:49;;;;;;;0.00;0.00;;;19.30;99.90;;;;;;5006277;28;20490;-76
2022/06/06 08:55:39;;;;;;;0.00;0.00;;;19.20;99.90;;;;;;5016852;28;20450;-75
2022/06/06 08:58:42;;;;;;;0.00;0.00;;;19.30;99.90;;;;;;5020215;28;20430;-76
2022/06/06 09:01:26;;;;;;;0.00;0.00;;;19.30;99.90;;;;;;5011575;28;20483;-76
2022/06/06 09:04:51;;;;;;;0.00;0.00;;;19.60;99.90;;;;;;5011538;28;20439;-76
2022/06/06 09:07:45;;;;;;;0.00;0.00;;;19.90;99.90;;;;;;5010286;28;20615;-75
2022/06/06 09:10:51;;;;;;;0.00;0.00;;;20.20;99.90;;;;;;5006074;28;21022;-74
2022/06/06 09:13:59;;;;;;;0.00;0.00;;;20.50;99.90;;;;;;5011580;28;20441;-75
2022/06/06 09:17:16;;;;;;;0.00;0.00;;;20.70;99.90;;;;;;5017925;28;20556;-76
2022/06/06 09:20:18;;;;;;;0.00;0.00;;;20.70;99.90;;;;;;5020203;28;20540;-74
2022/06/06 09:23:41;;;;;;;0.00;0.00;;;20.80;99.90;;;;;;5019685;28;20468;-75
2022/06/06 09:26:23;;;;;;;0.00;0.00;;;21.00;99.90;;;;;;5016396;28;20463;-76
2022/06/06 09:29:31;;;;;;;0.00;0.00;;;21.20;99.90;;;;;;5012144;28;20517;-75
2022/06/06 09:32:36;;;;;;;0.00;0.00;;;21.30;99.90;;;;;;5014125;28;20461;-73
2022/06/06 09:35:31;;;;;;;0.00;0.00;;;21.40;99.90;;;;;;5015402;28;20449;-75
2022/06/06 09:38:14;;;;;;;0.00;0.00;;;21.60;99.90;;;;;;5018591;28;20949;-77
2022/06/06 09:40:57;;;;;;;0.00;0.00;;;21.70;99.90;;;;;;5017774;28;20979;-74
2022/06/06 09:43:55;;;;;;;0.00;0.00;;;21.80;99.90;;;;;;5013474;28;20533;-74
2022/06/06 09:46:46;;;;;;;0.00;0.00;;;21.80;99.90;;;;;;5017391;28;20457;-75
2022/06/06 09:49:59;;;;;;;0.00;0.00;;;21.70;99.90;;;;;;5015624;28;20476;-74
2022/06/06 09:53:05;;;;;;;0.00;0.00;;;21.50;99.90;;;;;;5016113;28;20480;-75
2022/06/06 09:59:30;;;;;;;0.00;0.00;;;21.30;99.90;;;;;;5012701;28;20439;-76
2022/06/06 10:02:40;;;;;;;0.00;0.00;;;21.30;99.90;;;;;;5016123;28;20481;-75
2022/06/06 10:05:36;;;;;;;0.00;0.00;;;21.20;99.90;;;;;;5013509;28;20461;-75
2022/06/06 10:08:48;;;;;;;0.00;0.00;;;21.20;99.90;;;;;;5018196;28;20756;-75
2022/06/06 10:11:34;;;;;;;0.00;0.00;;;21.30;99.90;;;;;;5015586;28;20478;-74
2022/06/06 10:14:24;;;;;;;0.00;0.00;;;21.60;99.90;;;;;;5013580;28;22038;-75
2022/06/06 10:17:23;;;;;;;0.00;0.00;;;21.70;99.90;;;;;;5011272;28;20557;-76
2022/06/06 10:20:08;;;;;;;0.00;0.00;;;21.80;99.90;;;;;;5002362;28;20442;-75
2022/06/06 10:23:00;;;;;;;0.00;0.00;;;21.70;99.90;;;;;;5016711;28;20756;-74
2022/06/06 10:26:16;;;;;;;0.00;0.00;;;21.40;99.90;;;;;;4999602;28;20953;-74
2022/06/06 10:32:43;;;;;;;0.00;0.00;;;21.20;99.90;;;;;;4999416;28;20771;-69
2022/06/06 10:35:25;;;;;;;0.00;0.00;;;21.00;99.90;;;;;;5008417;28;20759;-69
2022/06/06 10:38:11;;;;;;;0.00;0.00;;;21.00;99.90;;;;;;5005529;28;20738;-71
2022/06/06 10:40:57;;;;;;;0.00;0.00;;;20.80;99.90;;;;;;5007521;28;20441;-70
2022/06/06 10:44:04;;;;;;;0.00;0.00;;;20.70;99.90;;;;;;5005985;28;20748;-71
2022/06/06 10:46:41;;;;;;;0.00;0.00;;;20.70;99.90;;;;;;4998485;28;20466;-70
2022/06/06 10:49:26;;;;;;;0.00;0.00;;;20.70;99.90;;;;;;5006560;28;20480;-71
2022/06/06 10:52:24;;;;;;;0.00;0.00;;;20.80;99.90;;;;;;5012451;28;20833;-70
2022/06/06 10:55:49;;;;;;;0.00;0.00;;;20.90;99.90;;;;;;5005660;28;20461;-69
2022/06/06 10:59:05;;;;;;;0.00;0.00;;;21.20;99.90;;;;;;4969609;28;20464;-68
2022/06/06 11:02:10;;;;;;;0.00;0.00;;;21.40;99.90;;;;;;4958833;28;20497;-69
2022/06/06 11:05:02;;;;;;;0.00;0.00;;;21.50;99.90;;;;;;4999341;28;20523;-69
2022/06/06 11:08:13;;;;;;;0.00;0.00;;;21.60;99.90;;;;;;4997915;28;20438;-69
2022/06/06 11:11:02;;;;;;;0.00;0.00;;;21.50;99.90;;;;;;5002106;28;20506;-70
2022/06/06 11:13:58;;;;;;;0.00;0.00;;;21.50;99.90;;;;;;4998048;28;20438;-70
2022/06/06 11:17:00;;;;;;;0.00;0.00;;;21.60;99.90;;;;;;5000331;28;20481;-72
2022/06/06 11:20:08;;;;;;;0.00;0.00;;;21.70;99.90;;;;;;5004422;28;20524;-70
2022/06/06 11:22:39;;;;;;;0.00;0.00;;;21.90;99.90;;;;;;5007923;28;20885;-76
2022/06/06 11:25:12;;;;;;;0.00;0.00;;;22.00;99.90;;;;;;5007567;28;20461;-69
2022/06/06 11:28:04;;;;;;;0.00;0.00;;;22.10;99.90;;;;;;5017618;28;20715;-68
2022/06/06 11:31:16;;;;;;;0.00;0.00;;;22.10;99.90;;;;;;5003481;28;20463;-68
2022/06/06 11:34:32;;;;;;;0.00;0.00;;;22.20;99.90;;;;;;5001759;28;20470;-68
2022/06/06 11:37:32;;;;;;;0.00;0.00;;;22.20;99.90;;;;;;5008785;28;20477;-68
2022/06/06 11:40:35;;;;;;;0.00;0.00;;;22.30;99.90;;;;;;5007956;28;20775;-69
2022/06/06 11:43:32;;;;;;;0.00;0.00;;;22.40;99.90;;;;;;4999951;28;20459;-69
2022/06/06 11:46:49;;;;;;;0.00;0.00;;;22.40;99.90;;;;;;5006265;28;20497;-68
2022/06/06 11:49:53;;;;;;;0.00;0.00;;;22.70;99.90;;;;;;4935773;28;20478;-68
2022/06/06 11:53:06;;;;;;;0.00;0.00;;;22.80;99.90;;;;;;5013874;28;20466;-69
2022/06/06 11:55:47;;;;;;;0.00;0.00;;;22.60;99.90;;;;;;5003616;28;20656;-69
2022/06/06 11:58:44;;;;;;;0.00;0.00;;;22.60;99.90;;;;;;5017224;28;20444;-69
2022/06/06 12:01:40;;;;;;;0.00;0.00;;;22.60;99.90;;;;;;5003960;28;20658;-69
2022/06/06 12:04:43;;;;;;;0.00;0.00;;;22.60;99.90;;;;;;5018580;28;20466;-69
2022/06/06 12:07:37;;;;;;;0.00;0.00;;;22.70;99.90;;;;;;4973687;28;20439;-69
2022/06/06 12:10:15;;;;;;;0.00;0.00;;;22.80;99.90;;;;;;4998330;28;20520;-69
2022/06/06 12:13:13;;;;;;;0.00;0.00;;;22.90;99.90;;;;;;5015511;28;20543;-69
2022/06/06 12:16:13;;;;;;;0.00;0.00;;;23.00;99.90;;;;;;5012258;28;20975;-69
2022/06/06 12:19:28;;;;;;;0.00;0.00;;;23.20;99.90;;;;;;5003991;28;20540;-68
2022/06/06 12:22:25;;;;;;;0.00;0.00;;;23.20;99.90;;;;;;5021562;28;20980;-71
2022/06/06 12:25:26;;;;;;;0.00;0.00;;;23.10;99.90;;;;;;5021123;28;21004;-69
2022/06/06 12:28:18;;;;;;;0.00;0.00;;;23.10;99.90;;;;;;5020738;28;21099;-68
2022/06/06 12:31:15;;;;;;;0.00;0.00;;;23.10;99.90;;;;;;5020367;28;20481;-68
2022/06/06 12:33:49;;;;;;;0.00;0.00;;;23.20;99.90;;;;;;5021012;28;20437;-68
2022/06/06 12:36:22;;;;;;;0.00;0.00;;;23.10;99.90;;;;;;5020847;28;20456;-68
2022/06/06 12:38:58;;;;;;;0.00;0.00;;;23.10;99.90;;;;;;5020555;28;20436;-69
2022/06/06 12:41:43;;;;;;;0.00;0.00;;;23.20;99.90;;;;;;5011537;28;20582;-70
2022/06/06 12:44:28;;;;;;;0.00;0.00;;;23.10;99.90;;;;;;5005132;28;20460;-70
2022/06/06 12:47:13;;;;;;;0.00;0.00;;;23.00;99.90;;;;;;5013976;28;20480;-69
2022/06/06 12:50:06;;;;;;;0.00;0.00;;;23.00;99.90;;;;;;5022215;28;20478;-72
2022/06/06 12:52:57;;;;;;;0.00;0.00;;;23.10;99.90;;;;;;5023519;28;20493;-69
2022/06/06 12:55:39;;;;;;;0.00;0.00;;;23.00;99.90;;;;;;5023143;28;21114;-67
2022/06/06 12:58:25;;;;;;;0.00;0.00;;;23.00;99.90;;;;;;5021209;28;20456;-69
2022/06/06 13:03:59;;;;;;;0.00;0.00;;;22.80;99.90;;;;;;5019844;28;20500;-69
2022/06/06 13:06:37;;;;;;;0.00;0.00;;;22.80;99.90;;;;;;5021309;28;20441;-69
2022/06/06 13:09:21;;;;;;;0.00;0.00;;;22.90;99.90;;;;;;5021452;28;20493;-70
2022/06/06 13:11:53;;;;;;;0.00;0.00;;;22.90;99.90;;;;;;5020914;28;21155;-71
2022/06/06 13:14:41;;;;;;;0.00;0.00;;;22.70;99.90;;;;;;5015237;28;20459;-69
2022/06/06 13:17:21;;;;;;;0.00;0.00;;;22.40;99.90;;;;;;5012234;28;20463;-70
2022/06/06 13:20:00;;;;;;;0.00;0.00;;;22.00;99.90;;;;;;5014985;28;20467;-69
2022/06/06 13:22:44;;;;;;;0.00;0.00;;;21.60;99.90;;;;;;5020628;28;20477;-71
2022/06/06 13:25:25;;;;;;;0.00;0.00;;;21.40;99.90;;;;;;5042480;28;20624;-71
2022/06/06 13:27:59;;;;;;;0.00;0.00;;;21.40;99.90;;;;;;5026714;28;20461;-71
2022/06/06 13:30:36;;;;;;;0.00;0.00;;;21.30;99.90;;;;;;5019864;28;21212;-71
2022/06/06 13:33:37;;;;;;;0.00;0.00;;;21.20;99.90;;;;;;5020131;28;20441;-69
2022/06/06 13:36:14;;;;;;;0.00;0.00;;;21.10;99.90;;;;;;5006183;28;20457;-69
2022/06/06 13:38:57;;;;;;;0.00;0.00;;;21.00;99.90;;;;;;5008520;28;20443;-69
2022/06/06 13:41:42;;;;;;;0.00;0.00;;;21.00;99.90;;;;;;5000405;28;20485;-72
2022/06/06 13:44:34;;;;;;;0.00;0.00;;;21.00;99.90;;;;;;4999825;28;20442;-68
2022/06/06 13:47:13;;;;;;;0.00;0.00;;;20.90;99.90;;;;;;5010440;28;20475;-69
2022/06/06 13:49:57;;;;;;;0.00;0.00;;;21.00;99.90;;;;;;5000404;28;20482;-69
2022/06/06 13:52:37;;;;;;;0.00;0.00;;;21.10;99.90;;;;;;5004068;28;20515;-69
2022/06/06 13:55:25;;;;;;;0.00;0.00;;;21.10;99.90;;;;;;5009052;28;20453;-70
2022/06/06 13:58:13;;;;;;;0.00;0.00;;;21.20;99.90;;;;;;5015626;28;20476;-69
2022/06/06 14:00:50;;;;;;;0.00;0.00;;;21.20;99.90;;;;;;5017459;28;20605;-70
2022/06/06 14:03:57;;;;;;;0.00;0.00;;;21.40;99.90;;;;;;5008415;28;20823;-70
2022/06/06 14:06:42;;;;;;;0.00;0.00;;;21.50;99.90;;;;;;5001821;28;20487;-69
2022/06/06 14:09:15;;;;;;;0.00;0.00;;;21.70;99.90;;;;;;5008686;28;20485;-70
2022/06/06 14:12:00;;;;;;;0.00;0.00;;;21.80;99.90;;;;;;5005725;28;20556;-69
2022/06/06 14:14:32;;;;;;;0.00;0.00;;;21.80;99.90;;;;;;5003895;28;20925;-70
2022/06/06 14:17:25;;;;;;;0.00;0.00;;;21.90;99.90;;;;;;5004657;28;20461;-69
2022/06/06 14:20:07;;;;;;;0.00;0.00;;;21.90;99.90;;;;;;4999841;28;20513;-69
2022/06/06 14:22:38;;;;;;;0.00;0.00;;;22.00;99.90;;;;;;5002517;28;20497;-70
2022/06/06 14:25:08;;;;;;;0.00;0.00;;;22.00;99.90;;;;;;5006556;28;21102;-69
2022/06/06 14:27:36;;;;;;;0.00;0.00;;;22.10;99.90;;;;;;5005742;28;20888;-69
2022/06/06 14:30:08;;;;;;;0.00;0.00;;;22.20;99.90;;;;;;5010974;28;20531;-69
2022/06/06 14:32:52;;;;;;;0.00;0.00;;;22.30;99.90;;;;;;5000965;28;20631;-69
2022/06/06 14:35:38;;;;;;;0.00;0.00;;;22.40;99.90;;;;;;5002264;28;20488;-72